Time;durP1;ratioP1;P1;durP2;ratioP2;P2;SDS_P1;SDS_P2;PMS_P1;PMS_P2;Temp;Humidity;BMP_temperature;BMP_pressure;BME280_temperature;BME280_humidity;BME280_pressure;Samples;Min_cycle;Max_cycle;Signal;HPM_P1;HPM_P2
2023/04/23 05:54:32;;;;;;;16.10;12.70;;;;;;;17.87;52.45;100211.00;108408;1261;72074;-88
2023/04/23 06:00:49;;;;;;;14.00;11.30;;;;;;;18.84;51.99;100207.23;108490;1260;60288;-89
2023/04/23 06:04:12;;;;;;;17.40;12.90;;;;;;;19.41;51.73;100207.94;108551;1259;73135;-89
2023/04/23 06:47:48;;;;;;;16.70;9.30;;;;;;;27.05;46.95;100192.00;108324;1263;67749;-88
2023/04/23 07:10:27;;;;;;;12.70;9.20;;;;;;;30.41;42.66;100173.52;108301;1262;60350;-89
2023/04/23 07:14:14;;;;;;;11.20;7.70;;;;;;;31.12;42.77;100170.50;108263;1263;72958;-88
2023/04/23 07:18:05;;;;;;;8.30;7.10;;;;;;;31.27;42.60;100166.32;108243;1262;67058;-88
2023/04/23 07:21:52;;;;;;;7.30;5.60;;;;;;;31.67;42.03;100165.30;107047;1278;71098;-88
2023/04/23 07:25:38;;;;;;;7.90;6.10;;;;;;;32.50;40.94;100164.70;107047;1280;61265;-88
2023/04/23 07:29:25;;;;;;;7.90;5.20;;;;;;;32.41;40.49;100162.18;106256;1286;59569;-88
2023/04/23 07:33:12;;;;;;;9.10;5.40;;;;;;;32.40;40.03;100158.41;106255;1286;75191;-88
2023/04/23 07:36:59;;;;;;;5.70;4.60;;;;;;;32.16;40.43;100161.27;106294;1285;67460;-87
2023/04/23 07:40:46;;;;;;;9.60;4.80;;;;;;;32.58;39.40;100155.31;106278;1285;71319;-88
2023/04/23 07:44:33;;;;;;;4.60;4.20;;;;;;;31.37;38.55;100150.00;105108;1297;60367;-88
2023/04/23 07:48:21;;;;;;;9.00;4.10;;;;;;;31.30;38.04;100146.56;105509;1296;60283;-87
2023/04/23 07:52:08;;;;;;;6.40;4.60;;;;;;;32.90;36.74;100143.98;105112;1297;72476;-88
2023/04/23 07:55:55;;;;;;;9.50;4.60;;;;;;;34.06;35.46;100139.03;105202;1301;68520;-88
2023/04/23 07:59:42;;;;;;;4.70;4.30;;;;;;;35.11;34.95;100133.88;106550;1283;71216;-88
2023/04/23 08:03:29;;;;;;;4.60;4.20;;;;;;;36.28;34.46;100127.78;105988;1289;59350;-88
2023/04/23 08:07:16;;;;;;;7.50;4.50;;;;;;;37.32;34.55;100128.62;105359;1295;60217;-88
2023/04/23 08:11:03;;;;;;;7.10;4.90;;;;;;;38.35;33.63;100126.09;105379;1295;74088;-88
2023/04/23 08:14:49;;;;;;;5.70;4.50;;;;;;;39.12;33.09;100121.67;104972;1301;68200;-88
2023/04/23 08:18:36;;;;;;;5.10;4.40;;;;;;;39.57;32.21;100119.34;104978;1300;71230;-88
2023/04/23 08:22:23;;;;;;;6.90;4.40;;;;;;;40.22;31.27;100116.62;105213;1297;60361;-88
2023/04/23 08:26:10;;;;;;;5.20;4.70;;;;;;;40.40;30.87;100111.23;104956;1303;61854;-88
2023/04/23 08:29:57;;;;;;;5.20;4.80;;;;;;;40.45;29.56;100112.36;104977;1300;75161;-88
2023/04/23 08:33:44;;;;;;;7.00;5.10;;;;;;;40.32;29.52;100108.40;104987;1301;67201;-89
2023/04/23 08:37:31;;;;;;;6.80;5.10;;;;;;;40.71;29.32;100109.00;104910;1300;72578;-88
2023/04/23 08:41:17;;;;;;;5.40;4.90;;;;;;;40.73;27.89;100104.60;105227;1297;59773;-88
2023/04/23 08:45:05;;;;;;;7.20;4.20;;;;;;;37.50;27.85;100097.14;106580;1283;60371;-88
2023/04/23 08:48:53;;;;;;;8.30;3.60;;;;;;;34.10;27.79;100086.31;106661;1283;72356;-90
2023/04/23 08:52:42;;;;;;;4.50;3.30;;;;;;;31.47;27.33;100081.77;106757;1283;68863;-89
2023/04/23 09:56:18;;;;;;;11.00;3.30;;;;;;;22.06;29.84;100005.14;108596;1261;60285;-86
2023/04/23 10:05:15;;;;;;;10.20;3.10;;;;;;;22.00;30.20;99991.17;108528;1260;71789;-87
2023/04/23 10:09:01;;;;;;;5.30;2.80;;;;;;;22.01;30.57;99989.38;109328;1260;58407;-86
2023/04/23 10:12:47;;;;;;;4.70;2.20;;;;;;;22.05;30.77;99986.10;108016;1260;60301;-87
2023/04/23 10:16:34;;;;;;;10.80;3.10;;;;;;;22.09;30.64;99978.27;109392;1260;73365;-86
2023/04/23 10:20:20;;;;;;;5.30;2.30;;;;;;;22.08;30.76;99977.42;109210;1260;69148;-86
2023/04/23 10:24:06;;;;;;;6.20;2.70;;;;;;;22.10;31.05;99982.34;108275;1265;71016;-86
2023/04/23 10:30:48;;;;;;;4.60;2.40;;;;;;;22.20;31.21;99984.48;108552;1261;60382;-88
2023/04/23 10:34:35;;;;;;;7.50;2.30;;;;;;;22.21;31.48;99977.39;108395;1261;73578;-87
2023/04/23 10:40:57;;;;;;;4.40;2.30;;;;;;;22.30;31.53;99974.23;108501;1261;72102;-87
2023/04/23 10:44:53;;;;;;;10.50;3.10;;;;;;;22.26;31.60;99971.52;108405;1260;60321;-86
2023/04/23 10:48:58;;;;;;;;;;;;;;;;;;;;;
2023/04/23 10:53:01;;;;;;;7.40;3.00;;;;;;;22.17;31.92;99970.10;107149;1278;72280;-88
2023/04/23 10:57:06;;;;;;;;;;;;;;;;;;;;;
2023/04/23 11:00:49;;;;;;;8.40;2.70;;;;;;;22.23;31.97;99970.71;105409;1295;72109;-89
2023/04/23 11:04:43;;;;;;;4.20;2.40;;;;;;;22.16;32.32;99974.25;105316;1295;60594;-88
2023/04/23 11:14:25;;;;;;;4.60;2.70;;;;;;;22.13;32.53;99974.05;108658;1264;67314;-86
2023/04/23 11:18:11;;;;;;;6.00;2.50;;;;;;;22.20;32.66;99984.30;107930;1269;71208;-87
2023/04/23 11:22:20;;;;;;;9.50;2.70;;;;;;;22.18;32.61;99981.09;107304;1278;60352;-87
2023/04/23 11:26:09;;;;;;;4.70;2.60;;;;;;;22.11;32.82;99980.91;106441;1285;59618;-87
2023/04/23 11:29:31;;;;;;;3.90;2.30;;;;;;;22.11;32.95;99982.11;108740;1261;73326;-86
2023/04/23 11:33:20;;;;;;;7.30;2.50;;;;;;;22.15;33.14;99982.20;108606;1264;66949;-86
2023/04/23 11:37:08;;;;;;;6.60;2.70;;;;;;;22.25;33.21;99980.05;108661;1260;71235;-87
2023/04/23 11:40:56;;;;;;;6.10;2.80;;;;;;;22.33;33.28;99981.55;108473;1260;59251;-86
2023/04/23 11:49:58;;;;;;;4.10;2.80;;;;;;;22.40;33.55;99976.61;108697;1260;66979;-86
2023/04/23 11:53:47;;;;;;;6.30;2.70;;;;;;;22.36;33.75;99986.70;107858;1268;70271;-86
2023/04/23 12:14:41;;;;;;;;;;;;;;;;;;;;;
2023/04/23 12:18:31;;;;;;;4.40;2.40;;;;;;;22.26;34.95;99988.70;109219;1260;73431;-86
2023/04/23 12:22:32;;;;;;;7.20;2.50;;;;;;;22.32;34.91;99985.66;108676;1273;67370;-87
2023/04/23 12:26:20;;;;;;;4.60;3.00;;;;;;;22.33;35.22;99993.15;108202;1276;71235;-87
2023/04/23 12:30:08;;;;;;;3.90;2.50;;;;;;;22.34;35.33;99987.45;106976;1291;58151;-87
2023/04/23 12:34:01;;;;;;;7.20;2.60;;;;;;;22.36;35.54;99990.25;106501;1292;59912;-87
2023/04/23 12:38:00;;;;;;;;;;;;;;;;;;;;;
2023/04/23 12:41:47;;;;;;;12.20;3.00;;;;;;;22.40;35.75;99985.55;106192;1296;68546;-86
2023/04/23 12:45:46;;;;;;;3.80;2.70;;;;;;;22.37;35.88;99988.71;105533;1304;71248;-87
2023/04/23 12:49:35;;;;;;;3.80;2.90;;;;;;;22.27;36.07;99989.07;105538;1304;58213;-86
2023/04/23 12:53:25;;;;;;;5.30;2.60;;;;;;;22.10;36.33;99991.33;105222;1309;59742;-86
2023/04/23 12:57:20;;;;;;;3.70;2.80;;;;;;;21.92;36.69;99990.91;104266;1319;73251;-87
2023/04/23 13:01:05;;;;;;;4.60;2.50;;;;;;;21.79;36.72;99988.16;104476;1315;68327;-87
2023/04/23 13:05:01;;;;;;;3.80;2.30;;;;;;;21.60;36.78;99995.15;104237;1319;71398;-87
2023/04/23 13:09:08;;;;;;;6.40;2.20;;;;;;;21.41;36.88;99997.53;104659;1313;58701;-86
2023/04/23 13:15:32;;;;;;;4.40;2.20;;;;;;;21.13;37.32;100002.65;109373;1259;73090;-86
2023/04/23 13:19:22;;;;;;;3.30;1.90;;;;;;;21.02;37.38;100009.20;108630;1271;69153;-86
2023/04/23 13:23:18;;;;;;;3.00;1.60;;;;;;;20.86;37.71;100011.21;108564;1276;71404;-87
2023/04/23 13:27:06;;;;;;;4.30;1.80;;;;;;;20.66;37.89;100015.57;108131;1277;58489;-87
2023/04/23 13:31:00;;;;;;;2.80;2.50;;;;;;;20.54;38.25;100018.33;107356;1285;59840;-86
2023/04/23 13:34:59;;;;;;;2.70;2.40;;;;;;;20.42;38.54;100015.42;107324;1286;73580;-86
2023/04/23 13:38:49;;;;;;;5.20;2.60;;;;;;;20.36;39.33;100023.15;107407;1286;68486;-86
2023/04/23 13:42:39;;;;;;;5.50;3.60;;;;;;;20.33;39.01;100020.53;107382;1286;71189;-86
2023/04/23 13:46:27;;;;;;;9.00;3.10;;;;;;;20.37;39.43;100018.36;106963;1289;58555;-86
2023/04/23 13:50:16;;;;;;;5.60;3.20;;;;;;;20.47;39.62;100016.34;107067;1287;58926;-87
2023/04/23 13:54:12;;;;;;;3.60;2.90;;;;;;;20.55;39.86;100012.81;106427;1295;72536;-86
2023/04/23 13:58:09;;;;;;;2.50;2.20;;;;;;;20.62;39.86;100011.32;106078;1296;67348;-87
2023/04/23 14:01:59;;;;;;;3.40;2.80;;;;;;;20.62;39.98;100010.43;106259;1298;71237;-87
2023/04/23 14:05:57;;;;;;;;;;;;;;;;;;;;;
2023/04/23 17:18:04;;;;;;;4.10;3.80;;;;;;;18.28;49.61;99972.69;109391;1261;66223;-89
2023/04/23 17:21:51;;;;;;;5.50;3.70;;;;;;;18.19;49.93;99972.35;108643;1270;71562;-88
2023/04/23 17:25:37;;;;;;;6.80;4.00;;;;;;;18.11;50.13;99967.27;108668;1270;58628;-87
2023/04/23 17:29:24;;;;;;;5.90;4.30;;;;;;;18.05;50.20;99968.43;108440;1279;58782;-88
2023/04/23 17:33:11;;;;;;;5.40;4.10;;;;;;;17.99;50.29;99965.46;108370;1276;73249;-88
2023/04/23 17:36:58;;;;;;;5.10;3.80;;;;;;;17.93;50.33;99966.50;107839;1282;67248;-88
2023/04/23 17:40:45;;;;;;;4.50;4.10;;;;;;;17.90;50.54;99967.20;107847;1283;71303;-88
2023/04/23 17:44:31;;;;;;;7.60;4.30;;;;;;;17.88;50.53;99964.73;107807;1282;58157;-87
2023/04/23 17:48:18;;;;;;;6.50;4.50;;;;;;;17.85;50.67;99964.86;107843;1282;59128;-88
2023/04/23 17:52:06;;;;;;;6.90;4.30;;;;;;;17.80;50.82;99965.81;107799;1283;73520;-87
2023/04/23 17:55:57;;;;;;;4.70;3.70;;;;;;;17.76;50.91;99969.38;107786;1282;68441;-87
2023/04/23 17:59:40;;;;;;;4.60;3.70;;;;;;;17.73;51.00;99971.64;108391;1274;71281;-88
2023/04/23 18:03:28;;;;;;;4.00;3.60;;;;;;;17.70;51.05;99977.73;108404;1274;58247;-87
2023/04/23 18:07:13;;;;;;;3.70;3.40;;;;;;;17.69;51.32;99976.57;108614;1273;58892;-88
2023/04/23 18:11:00;;;;;;;4.80;3.70;;;;;;;17.66;51.41;99981.14;108575;1277;72817;-87
2023/04/23 18:14:46;;;;;;;5.70;3.90;;;;;;;17.63;51.54;99991.92;108812;1270;67251;-87
2023/04/23 18:23:44;;;;;;;4.10;3.70;;;;;;;17.54;51.63;99999.17;109424;1260;58877;-88
2023/04/23 18:35:11;;;;;;;5.20;3.90;;;;;;;17.46;52.18;100007.83;109511;1260;59124;-88
2023/04/23 18:41:09;;;;;;;4.30;3.90;;;;;;;17.37;52.31;100013.54;109475;1260;73381;-88
2023/04/23 18:47:04;;;;;;;3.90;3.30;;;;;;;17.28;52.48;100012.79;109367;1260;72394;-87
2023/04/23 18:51:04;;;;;;;4.80;2.90;;;;;;;17.23;52.56;100013.10;109324;1261;58615;-88
2023/04/23 18:54:55;;;;;;;3.70;2.60;;;;;;;17.18;52.82;100019.55;108707;1272;60315;-88
2023/04/23 19:01:19;;;;;;;;;;;;;;;17.05;52.98;100012.83;109376;1262;67632;-87
2023/04/23 19:05:06;;;;;;;7.80;6.40;;;;;;;17.04;53.12;100011.63;109373;1260;71758;-88
2023/04/23 19:08:53;;;;;;;6.30;5.20;;;;;;;16.97;53.35;100010.42;108866;1267;59520;-88
2023/04/23 19:12:39;;;;;;;7.50;5.70;;;;;;;16.90;53.36;100012.23;108846;1267;58623;-86
2023/04/23 19:16:02;;;;;;;6.50;5.20;;;;;;;16.86;53.43;100011.88;109380;1260;73270;-86
2023/04/23 19:19:49;;;;;;;6.30;5.10;;;;;;;16.84;53.60;100014.59;109415;1260;67057;-86
2023/04/23 19:23:36;;;;;;;3.80;3.40;;;;;;;16.84;53.60;100008.88;108809;1267;70352;-86
2023/04/23 23:13:41;;;;;;;6.30;5.70;;;;;;;13.33;59.85;99895.33;109268;1266;69383;-87
